createdAt,value
2023-03-12T00:00:12.668Z,4.70
2023-03-12T00:02:39.634Z,4.70
2023-03-12T00:05:07.121Z,4.70
2023-03-12T00:07:36.524Z,4.70
2023-03-12T00:10:04.954Z,4.70
2023-03-12T00:12:31.998Z,4.70
2023-03-12T00:14:59.021Z,4.70
2023-03-12T00:17:26.236Z,4.80
2023-03-12T00:19:53.872Z,4.70
2023-03-12T00:22:23.247Z,4.80
2023-03-12T00:24:57.234Z,4.80
2023-03-12T00:27:25.403Z,4.70
2023-03-12T00:29:52.517Z,4.80
2023-03-12T00:32:20.230Z,4.70
2023-03-12T00:34:55.727Z,4.70
2023-03-12T00:37:23.029Z,4.70
2023-03-12T00:39:49.824Z,4.80
2023-03-12T00:42:17.467Z,4.80
2023-03-12T00:44:44.537Z,4.70
2023-03-12T00:47:12.180Z,4.70
2023-03-12T00:49:39.630Z,4.70
2023-03-12T00:52:06.721Z,4.80
2023-03-12T00:54:33.674Z,4.70
2023-03-12T00:57:00.536Z,4.80
2023-03-12T00:59:27.436Z,4.70
2023-03-12T01:01:54.666Z,4.80
2023-03-12T01:04:21.687Z,4.70
2023-03-12T01:06:48.560Z,4.70
2023-03-12T01:09:15.383Z,4.70
2023-03-12T01:11:42.240Z,4.70
2023-03-12T01:14:09.462Z,4.80
2023-03-12T01:16:36.399Z,4.80
2023-03-12T01:19:04.469Z,4.80
2023-03-12T01:21:32.206Z,4.80
2023-03-12T01:23:59.087Z,4.80
2023-03-12T01:26:26.985Z,4.80
2023-03-12T01:28:53.908Z,4.80
2023-03-12T01:31:21.031Z,4.80
2023-03-12T01:33:52.948Z,4.80
2023-03-12T01:36:28.733Z,4.80
2023-03-12T01:38:57.912Z,4.80
2023-03-12T01:41:27.084Z,4.80
2023-03-12T01:43:54.230Z,4.80
2023-03-12T01:46:43.386Z,4.80
2023-03-12T01:49:25.283Z,4.80
2023-03-12T01:51:57.519Z,4.80
2023-03-12T01:54:38.819Z,4.80
2023-03-12T01:57:09.945Z,4.80
2023-03-12T01:59:43.116Z,4.80
2023-03-12T02:02:10.265Z,4.80
2023-03-12T02:04:39.124Z,4.90
2023-03-12T02:07:11.592Z,4.80
2023-03-12T02:09:48.591Z,4.80
2023-03-12T02:12:17.419Z,4.80
2023-03-12T02:14:44.553Z,4.90
2023-03-12T02:17:11.839Z,4.90
2023-03-12T02:19:56.023Z,5.00
2023-03-12T02:22:23.784Z,4.90
2023-03-12T02:24:58.860Z,5.00
2023-03-12T02:27:25.875Z,4.90
2023-03-12T02:29:52.892Z,4.90
2023-03-12T02:32:31.024Z,5.00
2023-03-12T02:34:59.605Z,4.90
2023-03-12T02:37:26.567Z,4.90
2023-03-12T02:40:05.901Z,4.90
2023-03-12T02:42:33.729Z,4.90
2023-03-12T02:45:01.669Z,4.90
2023-03-12T02:47:28.688Z,4.90
2023-03-12T02:49:55.514Z,4.80
2023-03-12T02:52:22.363Z,4.80
2023-03-12T02:54:49.225Z,4.80
2023-03-12T02:57:16.049Z,4.80
2023-03-12T02:59:42.900Z,4.80
2023-03-12T03:02:09.742Z,4.80
2023-03-12T03:04:36.586Z,4.70
2023-03-12T03:07:03.559Z,4.60
2023-03-12T03:09:30.502Z,4.60
2023-03-12T03:11:57.316Z,4.60
2023-03-12T03:14:24.314Z,4.60
2023-03-12T03:16:51.354Z,4.60
2023-03-12T03:19:18.203Z,4.60
2023-03-12T03:21:45.188Z,4.50
2023-03-12T03:24:12.364Z,4.50
2023-03-12T03:26:39.249Z,4.40
2023-03-12T03:29:06.135Z,4.40
2023-03-12T03:31:33.163Z,4.40
2023-03-12T03:34:00.118Z,4.40
2023-03-12T03:36:26.962Z,4.40
2023-03-12T03:38:53.849Z,4.50
2023-03-12T03:41:22.964Z,4.50
2023-03-12T03:43:49.810Z,4.50
2023-03-12T03:46:16.944Z,4.50
2023-03-12T03:48:43.854Z,4.60
2023-03-12T03:51:11.726Z,4.60
2023-03-12T03:53:38.674Z,4.60
2023-03-12T03:56:10.967Z,4.60
2023-03-12T03:58:38.106Z,4.60
2023-03-12T04:01:06.240Z,4.70
2023-03-12T04:03:33.892Z,4.70
2023-03-12T04:06:03.677Z,4.70
2023-03-12T04:08:33.062Z,4.70
2023-03-12T04:10:59.871Z,4.70
2023-03-12T04:13:26.649Z,4.60
2023-03-12T04:15:54.349Z,4.70
2023-03-12T04:18:25.499Z,4.70
2023-03-12T04:20:52.371Z,4.70
2023-03-12T04:23:19.396Z,4.70
2023-03-12T04:25:46.180Z,4.60
2023-03-12T04:28:13.037Z,4.70
2023-03-12T04:30:39.988Z,4.70
2023-03-12T04:33:08.049Z,4.70
2023-03-12T04:35:35.064Z,4.70
2023-03-12T04:38:02.280Z,4.70
2023-03-12T04:40:29.637Z,4.70
2023-03-12T04:42:56.471Z,4.60
2023-03-12T04:45:23.441Z,4.60
2023-03-12T04:47:50.243Z,4.70
2023-03-12T04:50:17.388Z,4.60
2023-03-12T04:52:44.238Z,4.70
2023-03-12T04:55:11.085Z,4.60
2023-03-12T04:57:37.921Z,4.70
2023-03-12T05:00:10.259Z,4.70
2023-03-12T05:02:37.921Z,4.70
2023-03-12T05:05:05.332Z,4.70
2023-03-12T05:07:32.347Z,4.70
2023-03-12T05:09:59.231Z,4.70
2023-03-12T05:12:26.276Z,4.70
2023-03-12T05:14:54.676Z,4.70
2023-03-12T05:17:21.762Z,4.70
2023-03-12T05:19:48.781Z,4.70
2023-03-12T05:22:15.705Z,4.80
2023-03-12T05:24:42.713Z,4.80
2023-03-12T05:27:09.731Z,4.80
2023-03-12T05:29:36.646Z,4.80
2023-03-12T05:32:04.446Z,4.80
2023-03-12T05:34:31.663Z,4.80
2023-03-12T05:36:58.790Z,4.80
2023-03-12T05:39:28.228Z,4.80
2023-03-12T05:41:57.302Z,4.80
2023-03-12T05:44:25.199Z,4.90
2023-03-12T05:46:53.304Z,4.90
2023-03-12T05:49:21.224Z,5.00
2023-03-12T05:51:49.439Z,4.90
2023-03-12T05:54:18.394Z,4.90
2023-03-12T05:56:45.231Z,4.80
2023-03-12T05:59:12.166Z,4.90
2023-03-12T06:01:39.895Z,4.90
2023-03-12T06:04:06.785Z,4.80
2023-03-12T06:06:35.214Z,4.80
2023-03-12T06:09:03.970Z,4.80
2023-03-12T06:11:32.360Z,4.80
2023-03-12T06:13:59.282Z,4.80
2023-03-12T06:16:27.453Z,4.90
2023-03-12T06:18:57.948Z,4.80
2023-03-12T06:21:28.022Z,4.80
2023-03-12T06:23:55.333Z,4.80
2023-03-12T06:26:23.610Z,4.90
2023-03-12T06:28:51.338Z,4.90
2023-03-12T06:31:19.397Z,5.00
2023-03-12T06:33:46.663Z,5.00
2023-03-12T06:36:13.845Z,5.00
2023-03-12T06:38:41.731Z,5.00
2023-03-12T06:41:14.704Z,5.00
2023-03-12T06:43:41.878Z,5.10
2023-03-12T06:46:12.335Z,5.20
2023-03-12T06:48:41.470Z,5.20
2023-03-12T06:51:13.628Z,5.30
2023-03-12T06:53:42.515Z,5.30
2023-03-12T06:56:10.419Z,5.40
2023-03-12T06:58:37.521Z,5.50
2023-03-12T07:01:04.627Z,5.50
2023-03-12T07:03:31.809Z,5.60
2023-03-12T07:05:59.300Z,5.60
2023-03-12T07:08:30.895Z,5.60
2023-03-12T07:11:01.890Z,5.70
2023-03-12T07:13:29.482Z,5.70
2023-03-12T07:15:56.423Z,5.80
2023-03-12T07:18:23.444Z,5.90
2023-03-12T07:20:50.321Z,5.90
2023-03-12T07:23:17.172Z,5.90
2023-03-12T07:25:44.790Z,6.00
2023-03-12T07:28:12.478Z,6.10
2023-03-12T07:30:39.855Z,6.10
2023-03-12T07:33:12.634Z,6.20
2023-03-12T07:35:40.004Z,6.30
2023-03-12T07:38:08.117Z,6.40
2023-03-12T07:40:35.993Z,6.40
2023-03-12T07:43:03.647Z,6.50
2023-03-12T07:45:30.541Z,6.60
2023-03-12T07:47:57.463Z,6.70
2023-03-12T07:50:24.472Z,6.70
2023-03-12T07:52:51.588Z,6.80
2023-03-12T07:55:18.653Z,6.90
2023-03-12T07:57:45.778Z,7.00
2023-03-12T08:00:13.515Z,7.10
2023-03-12T08:02:40.860Z,7.20
2023-03-12T08:05:07.992Z,7.30
2023-03-12T08:07:35.761Z,7.40
2023-03-12T08:10:05.665Z,7.50
2023-03-12T08:12:32.574Z,7.50
2023-03-12T08:14:59.504Z,7.60
2023-03-12T08:17:27.199Z,7.70
2023-03-12T08:19:54.226Z,7.80
2023-03-12T08:22:21.097Z,7.90
2023-03-12T08:24:48.091Z,8.00
2023-03-12T08:27:15.011Z,8.10
2023-03-12T08:29:41.996Z,8.10
2023-03-12T08:32:10.877Z,8.20
2023-03-12T08:34:38.002Z,8.30
2023-03-12T08:37:05.857Z,8.40
2023-03-12T08:39:33.506Z,8.50
2023-03-12T08:42:00.454Z,8.60
2023-03-12T08:44:27.362Z,8.70
2023-03-12T08:46:54.307Z,8.70
2023-03-12T08:49:21.991Z,8.80
2023-03-12T08:51:54.482Z,8.90
2023-03-12T08:54:21.610Z,9.00
2023-03-12T08:56:52.750Z,9.00
2023-03-12T08:59:20.824Z,9.20
2023-03-12T09:01:47.937Z,9.30
2023-03-12T09:04:15.253Z,9.30
2023-03-12T09:06:42.313Z,9.40
2023-03-12T09:09:09.223Z,9.40
2023-03-12T09:11:39.597Z,9.40
2023-03-12T09:16:54.088Z,9.60
2023-03-12T09:19:21.313Z,9.70
2023-03-12T09:21:48.221Z,9.90
2023-03-12T09:24:15.261Z,9.90
2023-03-12T09:26:42.373Z,9.90
2023-03-12T09:29:09.194Z,10.00
2023-03-12T09:31:36.680Z,10.20
2023-03-12T09:34:04.723Z,10.30
2023-03-12T09:36:32.138Z,10.40
2023-03-12T09:38:59.066Z,10.40
2023-03-12T09:41:29.777Z,10.40
2023-03-12T09:44:34.689Z,10.40
2023-03-12T09:47:08.387Z,10.50
2023-03-12T09:49:41.048Z,10.70
2023-03-12T09:52:21.461Z,10.70
2023-03-12T09:54:58.866Z,10.90
2023-03-12T09:57:29.579Z,11.00
2023-03-12T09:59:57.222Z,11.10
2023-03-12T10:02:42.580Z,11.30
2023-03-12T10:05:31.942Z,11.10
2023-03-12T10:08:29.457Z,11.10
2023-03-12T10:11:21.340Z,11.20
2023-03-12T10:14:02.064Z,11.20
2023-03-12T10:16:59.696Z,11.00
2023-03-12T10:19:53.516Z,11.00
2023-03-12T10:22:39.467Z,11.00
2023-03-12T10:25:13.531Z,11.00
2023-03-12T10:27:41.365Z,11.10
2023-03-12T10:30:20.761Z,11.20
2023-03-12T10:32:51.985Z,11.30
2023-03-12T10:35:24.357Z,11.50
2023-03-12T10:38:02.515Z,11.40
2023-03-12T10:40:32.124Z,11.60
2023-03-12T10:42:58.925Z,11.70
2023-03-12T10:45:46.993Z,12.00
2023-03-12T10:48:25.890Z,12.20
2023-03-12T10:51:07.845Z,12.30
2023-03-12T10:53:37.138Z,12.30
2023-03-12T10:56:15.370Z,12.20
2023-03-12T10:58:53.592Z,12.40
2023-03-12T11:01:28.390Z,12.50
2023-03-12T11:04:15.051Z,12.40
2023-03-12T11:06:41.950Z,12.40
2023-03-12T11:09:20.019Z,12.40
2023-03-12T11:11:49.166Z,12.40
2023-03-12T11:14:26.317Z,12.40
2023-03-12T11:16:54.790Z,12.40
2023-03-12T11:19:33.274Z,12.60
2023-03-12T11:22:05.939Z,12.60
2023-03-12T11:24:32.875Z,12.60
2023-03-12T11:27:07.419Z,12.70
2023-03-12T11:29:43.504Z,12.80
2023-03-12T11:32:29.998Z,12.80
2023-03-12T11:34:57.128Z,12.80
2023-03-12T11:37:48.515Z,12.70
2023-03-12T11:40:32.305Z,12.80
2023-03-12T11:43:43.320Z,12.70
2023-03-12T11:46:23.014Z,12.70
2023-03-12T11:49:09.905Z,12.80
2023-03-12T11:51:47.325Z,12.70
2023-03-12T11:54:36.000Z,12.80
2023-03-12T11:57:14.669Z,12.80
2023-03-12T12:00:13.794Z,13.00
2023-03-12T12:02:53.781Z,13.00
2023-03-12T12:05:49.462Z,12.80
2023-03-12T12:08:44.052Z,12.60
2023-03-12T12:11:13.957Z,12.50
2023-03-12T12:13:52.471Z,12.60
2023-03-12T12:16:24.118Z,12.60
2023-03-12T12:19:25.018Z,12.50
2023-03-12T12:22:02.751Z,12.50
2023-03-12T12:25:17.295Z,12.60
2023-03-12T12:28:09.431Z,12.70
2023-03-12T12:31:08.592Z,12.80
2023-03-12T12:34:03.351Z,12.90
2023-03-12T12:36:34.071Z,12.90
2023-03-12T12:39:29.996Z,13.00
2023-03-12T12:42:02.483Z,12.90
2023-03-12T12:44:46.821Z,12.90
2023-03-12T12:47:19.585Z,13.10
2023-03-12T12:49:54.073Z,12.90
2023-03-12T12:52:22.318Z,12.90
2023-03-12T12:55:16.937Z,12.90
2023-03-12T12:58:00.592Z,12.70
2023-03-12T13:00:55.107Z,12.70
2023-03-12T13:03:24.425Z,12.80
2023-03-12T13:05:58.445Z,13.00
2023-03-12T13:08:32.753Z,13.30
2023-03-12T13:11:16.163Z,13.10
2023-03-12T13:13:51.133Z,13.00
2023-03-12T13:16:34.108Z,13.00
2023-03-12T13:19:07.669Z,12.90
2023-03-12T13:21:40.795Z,12.90
2023-03-12T13:24:23.789Z,13.00
2023-03-12T13:26:57.334Z,13.20
2023-03-12T13:29:30.602Z,13.00
2023-03-12T13:31:58.023Z,12.90
2023-03-12T13:34:27.566Z,12.80
2023-03-12T13:37:01.271Z,12.90
2023-03-12T13:39:36.364Z,13.10
2023-03-12T13:42:38.059Z,13.20
2023-03-12T13:45:28.899Z,13.10
2023-03-12T13:48:00.373Z,13.10
2023-03-12T13:50:28.504Z,13.00
2023-03-12T13:53:06.708Z,13.20
2023-03-12T13:55:35.901Z,13.10
2023-03-12T13:58:09.699Z,13.10
2023-03-12T14:01:00.310Z,13.00
2023-03-12T14:03:53.714Z,12.90
2023-03-12T14:06:24.181Z,13.00
2023-03-12T14:08:57.463Z,13.00
2023-03-12T14:11:48.633Z,12.90
2023-03-12T14:14:41.617Z,12.70
2023-03-12T14:17:20.296Z,12.60
2023-03-12T14:20:17.691Z,12.70
2023-03-12T14:22:51.576Z,12.80
2023-03-12T14:25:31.789Z,12.90
2023-03-12T14:27:58.664Z,12.70
2023-03-12T14:30:38.411Z,12.70
2023-03-12T14:33:06.489Z,12.60
2023-03-12T14:35:45.381Z,12.60
2023-03-12T14:38:24.775Z,12.70
2023-03-12T14:41:02.608Z,12.70
2023-03-12T14:43:31.243Z,12.70
2023-03-12T14:46:00.588Z,12.80
2023-03-12T14:48:37.117Z,12.70
2023-03-12T14:51:06.432Z,12.80
2023-03-12T14:53:39.576Z,12.80
2023-03-12T14:56:24.961Z,12.90
2023-03-12T14:58:52.598Z,12.90
2023-03-12T15:01:26.585Z,12.80
2023-03-12T15:04:06.373Z,12.80
2023-03-12T15:06:35.004Z,12.70
2023-03-12T15:09:04.523Z,12.60
2023-03-12T15:11:37.318Z,12.60
2023-03-12T15:14:08.948Z,12.50
2023-03-12T15:16:36.166Z,12.60
2023-03-12T15:19:04.252Z,12.50
2023-03-12T15:21:35.781Z,12.60
2023-03-12T15:24:03.992Z,12.50
2023-03-12T15:26:34.505Z,12.50
2023-03-12T15:29:03.088Z,12.50
2023-03-12T15:31:47.673Z,12.50
2023-03-12T15:34:32.017Z,12.40
2023-03-12T15:37:01.308Z,12.50
2023-03-12T15:39:34.273Z,12.50
2023-03-12T15:42:15.677Z,12.50
2023-03-12T15:44:54.866Z,12.50
2023-03-12T15:47:30.892Z,12.40
2023-03-12T15:49:59.488Z,12.40
2023-03-12T15:52:30.470Z,12.40
2023-03-12T15:55:12.380Z,12.40
2023-03-12T15:57:51.042Z,12.40
2023-03-12T16:00:20.718Z,12.40
2023-03-12T16:02:50.611Z,12.30
2023-03-12T16:05:18.902Z,12.30
2023-03-12T16:07:45.947Z,12.20
2023-03-12T16:10:18.359Z,12.20
2023-03-12T16:12:46.273Z,12.20
2023-03-12T16:15:22.594Z,12.30
2023-03-12T16:17:49.415Z,12.20
2023-03-12T16:20:17.775Z,12.20
2023-03-12T16:22:44.914Z,12.20
2023-03-12T16:25:13.192Z,12.20
2023-03-12T16:27:46.968Z,12.20
2023-03-12T16:30:24.772Z,12.10
2023-03-12T16:32:51.693Z,12.10
2023-03-12T16:35:20.227Z,12.00
2023-03-12T16:37:47.558Z,12.00
2023-03-12T16:40:23.933Z,12.00
2023-03-12T16:43:03.660Z,11.90
2023-03-12T16:45:33.612Z,11.90
2023-03-12T16:48:03.703Z,11.90
2023-03-12T16:50:31.223Z,11.90
2023-03-12T16:52:58.557Z,11.90
2023-03-12T16:55:31.180Z,11.90
2023-03-12T16:58:00.786Z,11.80
2023-03-12T17:00:30.388Z,11.70
2023-03-12T17:02:58.119Z,11.70
2023-03-12T17:05:29.805Z,11.70
2023-03-12T17:07:57.688Z,11.70
2023-03-12T17:10:26.393Z,11.70
2023-03-12T17:12:53.951Z,11.70
2023-03-12T17:15:26.484Z,11.60
2023-03-12T17:17:55.773Z,11.60
2023-03-12T17:20:24.371Z,11.60
2023-03-12T17:22:51.368Z,11.50
2023-03-12T17:25:26.805Z,11.50
2023-03-12T17:27:54.009Z,11.40
2023-03-12T17:30:22.052Z,11.40
2023-03-12T17:32:50.246Z,11.40
2023-03-12T17:35:18.826Z,11.30
2023-03-12T17:37:48.472Z,11.30
2023-03-12T17:40:15.865Z,11.30
2023-03-12T17:42:42.965Z,11.30
2023-03-12T17:45:10.296Z,11.30
2023-03-12T17:47:37.340Z,11.20
2023-03-12T17:50:07.872Z,11.20
2023-03-12T17:52:35.084Z,11.20
2023-03-12T17:55:02.031Z,11.20
2023-03-12T17:57:29.721Z,11.20
2023-03-12T17:59:56.777Z,11.10
2023-03-12T18:02:23.608Z,11.10
2023-03-12T18:04:50.517Z,11.10
2023-03-12T18:07:17.840Z,11.10
2023-03-12T18:09:45.086Z,11.10
2023-03-12T18:12:12.871Z,11.00
2023-03-12T18:14:39.732Z,11.00
2023-03-12T18:17:06.688Z,11.00
2023-03-12T18:19:35.262Z,11.00
2023-03-12T18:22:02.520Z,10.90
2023-03-12T18:24:29.479Z,10.90
2023-03-12T18:26:56.419Z,10.90
2023-03-12T18:29:23.576Z,10.90
2023-03-12T18:31:50.399Z,10.90
2023-03-12T18:34:17.385Z,10.90
2023-03-12T18:36:44.184Z,10.90
2023-03-12T18:39:11.092Z,10.90
2023-03-12T18:41:40.765Z,10.90
2023-03-12T18:44:08.722Z,10.80
2023-03-12T18:46:35.773Z,10.80
2023-03-12T18:49:12.311Z,10.80
2023-03-12T18:51:39.482Z,10.80
2023-03-12T18:54:06.691Z,10.80
2023-03-12T18:56:33.776Z,10.80
2023-03-12T18:59:00.759Z,10.80
2023-03-12T19:01:27.923Z,10.80
2023-03-12T19:03:54.807Z,10.80
2023-03-12T19:06:21.830Z,10.70
2023-03-12T19:08:48.722Z,10.70
2023-03-12T19:11:16.332Z,10.70
2023-03-12T19:13:43.431Z,10.60
2023-03-12T19:16:12.550Z,10.60
2023-03-12T19:18:39.975Z,10.60
2023-03-12T19:21:10.023Z,10.60
2023-03-12T19:23:36.944Z,10.50
2023-03-12T19:26:04.580Z,10.50
2023-03-12T19:28:31.592Z,10.50
2023-03-12T19:31:07.621Z,10.50
2023-03-12T19:33:34.557Z,10.50
2023-03-12T19:36:02.254Z,10.40
2023-03-12T19:38:29.452Z,10.40
2023-03-12T19:40:58.107Z,10.40
2023-03-12T19:43:26.389Z,10.40
2023-03-12T19:45:55.573Z,10.40
2023-03-12T19:48:25.319Z,10.30
2023-03-12T19:50:53.809Z,10.20
2023-03-12T19:53:20.983Z,10.20
2023-03-12T19:55:49.185Z,10.20
2023-03-12T19:58:16.591Z,10.20
2023-03-12T20:00:44.362Z,10.20
2023-03-12T20:03:11.304Z,10.20
2023-03-12T20:05:38.524Z,10.20
2023-03-12T20:08:05.953Z,10.30
2023-03-12T20:10:32.872Z,10.40
2023-03-12T20:12:59.726Z,10.40
2023-03-12T20:15:26.646Z,10.40
2023-03-12T20:17:59.342Z,10.50
2023-03-12T20:20:26.407Z,10.60
2023-03-12T20:22:53.263Z,10.50
2023-03-12T20:25:20.130Z,10.60
2023-03-12T20:27:47.335Z,10.60
2023-03-12T20:30:14.795Z,10.60
2023-03-12T20:32:42.978Z,10.70
2023-03-12T20:35:10.381Z,10.80
2023-03-12T20:37:37.293Z,10.80
2023-03-12T20:40:05.337Z,10.80
2023-03-12T20:42:32.345Z,10.90
2023-03-12T20:44:59.192Z,11.00
2023-03-12T20:47:26.137Z,11.00
2023-03-12T20:49:52.980Z,11.00
2023-03-12T20:52:19.848Z,11.00
2023-03-12T20:54:46.776Z,11.10
2023-03-12T20:57:13.572Z,11.10
2023-03-12T20:59:40.417Z,11.10
2023-03-12T21:02:07.512Z,11.20
2023-03-12T21:04:34.376Z,11.20
2023-03-12T21:07:01.269Z,11.20
2023-03-12T21:09:28.120Z,11.30
2023-03-12T21:11:55.014Z,11.30
2023-03-12T21:14:21.883Z,11.20
2023-03-12T21:16:48.827Z,11.20
2023-03-12T21:19:15.679Z,11.20
2023-03-12T21:21:42.663Z,11.20
2023-03-12T21:24:09.885Z,11.20
2023-03-12T21:26:36.766Z,11.20
2023-03-12T21:29:04.200Z,11.20
2023-03-12T21:31:31.145Z,11.20
2023-03-12T21:33:58.155Z,11.20
2023-03-12T21:36:25.929Z,11.20
2023-03-12T21:38:53.082Z,11.20
2023-03-12T21:41:20.752Z,11.20
2023-03-12T21:43:48.247Z,11.10
2023-03-12T21:46:18.792Z,11.20
2023-03-12T21:48:47.482Z,11.10
2023-03-12T21:51:16.055Z,11.10
2023-03-12T21:53:42.933Z,11.10
2023-03-12T21:56:10.834Z,11.20
2023-03-12T21:58:37.884Z,11.10
2023-03-12T22:01:10.809Z,11.10
2023-03-12T22:03:38.126Z,11.10
2023-03-12T22:06:05.454Z,11.00
2023-03-12T22:08:33.287Z,11.00
2023-03-12T22:11:00.545Z,11.00
2023-03-12T22:13:27.407Z,11.00
2023-03-12T22:15:57.061Z,11.10
2023-03-12T22:18:24.555Z,11.00
2023-03-12T22:20:59.905Z,11.10
2023-03-12T22:23:26.790Z,11.10
2023-03-12T22:25:53.720Z,11.00
2023-03-12T22:28:21.009Z,11.10
2023-03-12T22:30:48.077Z,11.00
2023-03-12T22:33:14.895Z,11.00
2023-03-12T22:35:48.934Z,11.00
2023-03-12T22:38:15.961Z,10.90
2023-03-12T22:40:43.013Z,10.90
2023-03-12T22:43:09.887Z,10.90
2023-03-12T22:45:36.810Z,10.90
2023-03-12T22:48:03.906Z,10.90
2023-03-12T22:50:30.851Z,10.90
2023-03-12T22:52:58.582Z,10.80
2023-03-12T22:55:25.478Z,10.70
2023-03-12T22:57:52.433Z,10.70
2023-03-12T23:00:23.826Z,10.70
2023-03-12T23:02:50.927Z,10.70
2023-03-12T23:05:18.252Z,10.70
2023-03-12T23:07:45.284Z,10.70
2023-03-12T23:10:12.261Z,10.70
2023-03-12T23:12:39.427Z,10.70
2023-03-12T23:15:07.217Z,10.60
2023-03-12T23:17:34.110Z,10.60
2023-03-12T23:20:01.236Z,10.60
2023-03-12T23:22:28.111Z,10.60
2023-03-12T23:24:54.978Z,10.60
2023-03-12T23:27:21.990Z,10.50
2023-03-12T23:29:49.402Z,10.50
2023-03-12T23:32:17.043Z,10.50
2023-03-12T23:34:44.307Z,10.50
2023-03-12T23:37:11.800Z,10.50
2023-03-12T23:39:53.595Z,10.50
2023-03-12T23:42:21.679Z,10.40
2023-03-12T23:44:48.558Z,10.50
2023-03-12T23:47:15.400Z,10.40
2023-03-12T23:49:42.412Z,10.40
2023-03-12T23:52:09.224Z,10.40
2023-03-12T23:54:36.163Z,10.40
2023-03-12T23:57:03.344Z,10.40
2023-03-12T23:59:30.199Z,10.30
